createdAt,value
2022-10-26T00:02:02.142Z,101193.59
2022-10-26T00:07:07.841Z,101193.41
2022-10-26T00:12:13.294Z,101193.32
2022-10-26T00:17:18.832Z,101194.19
2022-10-26T00:22:24.654Z,101197.25
2022-10-26T00:27:30.174Z,101197.13
2022-10-26T00:32:36.383Z,101200.69
2022-10-26T00:37:42.012Z,101203.27
2022-10-26T00:42:47.790Z,101211.33
2022-10-26T00:47:57.820Z,101209.94
2022-10-26T00:53:06.139Z,101208.38
2022-10-26T00:58:12.955Z,101213.45
2022-10-26T01:03:18.962Z,101213.52
2022-10-26T01:08:25.787Z,101213.91
2022-10-26T01:13:35.965Z,101217.06
2022-10-26T01:19:11.580Z,101210.05
2022-10-26T01:24:37.406Z,101207.06
2022-10-26T01:29:51.909Z,101208.80
2022-10-26T01:35:03.216Z,101207.72
2022-10-26T01:40:17.477Z,101213.28
2022-10-26T01:45:23.336Z,101213.86
2022-10-26T01:50:30.122Z,101210.31
2022-10-26T01:55:42.005Z,101212.41
2022-10-26T02:00:50.450Z,101201.38
2022-10-26T02:06:04.214Z,101206.52
2022-10-26T02:11:24.631Z,101211.02
2022-10-26T02:16:33.048Z,101208.42
2022-10-26T02:21:44.480Z,101195.58
2022-10-26T02:26:53.399Z,101197.87
2022-10-26T02:31:59.322Z,101197.78
2022-10-26T02:37:07.652Z,101193.67
2022-10-26T02:42:14.688Z,101200.08
2022-10-26T02:47:22.596Z,101196.53
2022-10-26T02:52:33.742Z,101192.34
2022-10-26T02:57:42.741Z,101200.94
2022-10-26T03:02:58.730Z,101205.61
2022-10-26T03:08:04.665Z,101207.50
2022-10-26T03:13:11.155Z,101206.75
2022-10-26T03:18:16.617Z,101205.69
2022-10-26T03:23:22.086Z,101202.81
2022-10-26T03:28:27.613Z,101199.35
2022-10-26T03:33:33.127Z,101206.05
2022-10-26T03:38:38.690Z,101204.94
2022-10-26T03:43:44.074Z,101209.05
2022-10-26T03:48:49.608Z,101210.55
2022-10-26T03:53:55.143Z,101210.72
2022-10-26T03:59:00.783Z,101213.56
2022-10-26T04:04:06.515Z,101216.72
2022-10-26T04:09:12.314Z,101215.07
2022-10-26T04:14:17.782Z,101217.30
2022-10-26T04:19:23.284Z,101220.34
2022-10-26T04:24:28.817Z,101217.11
2022-10-26T04:29:34.360Z,101209.52
2022-10-26T04:34:39.803Z,101202.98
2022-10-26T04:39:45.478Z,101203.15
2022-10-26T04:44:50.979Z,101211.83
2022-10-26T04:49:56.368Z,101218.62
2022-10-26T04:55:02.188Z,101227.13
2022-10-26T05:00:08.378Z,101230.37
2022-10-26T05:05:15.170Z,101238.69
2022-10-26T05:10:20.870Z,101237.43
2022-10-26T05:15:26.800Z,101236.17
2022-10-26T05:20:34.621Z,101241.77
2022-10-26T05:25:40.614Z,101237.61
2022-10-26T05:30:47.342Z,101249.75
2022-10-26T05:35:57.203Z,101247.14
2022-10-26T05:41:02.728Z,101244.58
2022-10-26T05:46:08.124Z,101247.26
2022-10-26T05:51:14.441Z,101248.48
2022-10-26T05:56:37.021Z,101252.90
2022-10-26T06:02:09.820Z,101255.89
2022-10-26T06:07:22.978Z,101266.21
2022-10-26T06:12:29.320Z,101266.61
2022-10-26T06:17:54.280Z,101268.27
2022-10-26T06:23:04.355Z,101266.84
2022-10-26T06:28:49.930Z,101277.40
2022-10-26T06:33:56.816Z,101277.16
2022-10-26T06:39:11.604Z,101285.39
2022-10-26T06:44:23.776Z,101295.09
2022-10-26T06:49:41.007Z,101307.30
2022-10-26T06:54:55.828Z,101311.00
2022-10-26T07:00:10.047Z,101311.91
2022-10-26T07:05:15.776Z,101313.78
2022-10-26T07:10:21.263Z,101310.80
2022-10-26T07:15:26.799Z,101316.87
2022-10-26T07:20:32.861Z,101322.48
2022-10-26T07:25:40.655Z,101322.45
2022-10-26T07:30:46.316Z,101326.30
2022-10-26T07:35:53.037Z,101330.20
2022-10-26T07:40:58.493Z,101327.78
2022-10-26T07:46:04.029Z,101320.73
2022-10-26T07:51:09.632Z,101324.80
2022-10-26T07:56:15.299Z,101324.19
2022-10-26T08:01:21.846Z,101331.14
2022-10-26T08:06:27.372Z,101329.42
2022-10-26T08:11:32.967Z,101329.62
2022-10-26T08:16:40.729Z,101340.11
2022-10-26T08:21:47.258Z,101338.53
2022-10-26T08:26:52.929Z,101348.50
2022-10-26T08:31:58.391Z,101355.60
2022-10-26T08:37:03.988Z,101358.48
2022-10-26T08:42:15.299Z,101363.37
2022-10-26T08:47:26.788Z,101360.77
2022-10-26T08:52:41.062Z,101361.98
2022-10-26T08:57:49.593Z,101356.78
2022-10-26T09:02:55.667Z,101358.75
2022-10-26T09:08:10.133Z,101362.73
2022-10-26T09:13:47.360Z,101357.06
2022-10-26T09:18:57.761Z,101358.92
2022-10-26T09:24:35.669Z,101355.34
2022-10-26T09:29:43.812Z,101354.77
2022-10-26T09:34:55.211Z,101353.43
2022-10-26T09:40:12.064Z,101357.38
2022-10-26T09:45:23.408Z,101355.71
2022-10-26T09:50:37.351Z,101359.06
2022-10-26T09:55:52.266Z,101369.55
2022-10-26T10:00:58.813Z,101374.83
2022-10-26T10:06:18.858Z,101374.38
2022-10-26T10:11:26.112Z,101374.89
2022-10-26T10:16:32.129Z,101379.06
2022-10-26T10:21:40.555Z,101377.10
2022-10-26T10:27:07.192Z,101379.33
2022-10-26T10:32:24.058Z,101381.72
2022-10-26T10:37:38.839Z,101377.84
2022-10-26T10:42:47.717Z,101384.45
2022-10-26T10:48:15.813Z,101389.48
2022-10-26T10:53:33.216Z,101381.28
2022-10-26T10:58:47.388Z,101375.39
2022-10-26T11:04:02.486Z,101380.62
2022-10-26T11:09:14.208Z,101382.22
2022-10-26T11:14:25.689Z,101383.17
2022-10-26T11:19:40.189Z,101384.15
2022-10-26T11:24:57.227Z,101385.53
2022-10-26T11:30:08.686Z,101385.53
2022-10-26T11:35:24.605Z,101382.22
2022-10-26T11:40:48.179Z,101372.08
2022-10-26T11:46:02.488Z,101382.47
2022-10-26T11:51:10.896Z,101376.44
2022-10-26T11:56:21.905Z,101373.05
2022-10-26T12:01:29.484Z,101374.78
2022-10-26T12:06:36.472Z,101370.36
2022-10-26T12:11:45.477Z,101368.34
2022-10-26T12:16:59.906Z,101364.02
2022-10-26T12:22:06.429Z,101364.64
2022-10-26T12:27:31.135Z,101365.01
2022-10-26T12:32:43.710Z,101367.55
2022-10-26T12:37:48.686Z,101368.28
2022-10-26T12:42:54.559Z,101365.00
2022-10-26T12:48:10.865Z,101357.97
2022-10-26T12:53:15.070Z,101361.75
2022-10-26T12:58:23.844Z,101351.84
2022-10-26T13:03:48.759Z,101359.66
2022-10-26T13:08:58.828Z,101355.94
2022-10-26T13:14:07.461Z,101353.09
2022-10-26T13:19:23.910Z,101346.39
2022-10-26T13:24:32.577Z,101352.73
2022-10-26T13:30:07.241Z,101351.69
2022-10-26T13:35:16.934Z,101341.12
2022-10-26T13:40:28.250Z,101339.77
2022-10-26T13:45:36.304Z,101339.58
2022-10-26T13:50:50.584Z,101340.95
2022-10-26T13:56:08.645Z,101346.13
2022-10-26T14:01:36.928Z,101353.41
2022-10-26T14:06:44.130Z,101360.60
2022-10-26T14:11:52.563Z,101360.41
2022-10-26T14:16:59.277Z,101365.50
2022-10-26T14:22:05.602Z,101353.60
2022-10-26T14:27:22.589Z,101362.24
2022-10-26T14:32:33.986Z,101369.65
2022-10-26T14:37:48.919Z,101370.55
2022-10-26T14:42:57.455Z,101361.56
2022-10-26T14:48:05.124Z,101368.36
2022-10-26T14:53:18.185Z,101373.20
2022-10-26T15:03:34.975Z,101375.39
2022-10-26T15:08:56.864Z,101384.88
2022-10-26T15:13:57.463Z,101377.20
2022-10-26T15:19:09.123Z,101383.83
2022-10-26T15:24:39.959Z,101383.91
2022-10-26T15:29:51.237Z,101392.47
2022-10-26T15:35:18.421Z,101384.37
2022-10-26T15:45:35.995Z,101388.41
2022-10-26T15:50:41.901Z,101391.22
2022-10-26T15:55:47.745Z,101393.05
2022-10-26T16:00:53.455Z,101391.66
2022-10-26T16:06:02.509Z,101395.05
2022-10-26T16:11:08.265Z,101397.00
2022-10-26T16:16:18.298Z,101399.32
2022-10-26T16:21:26.022Z,101388.50
2022-10-26T16:26:31.558Z,101403.04
2022-10-26T16:31:37.191Z,101400.73
2022-10-26T16:36:42.810Z,101403.67
2022-10-26T16:41:50.876Z,101407.78
2022-10-26T16:46:56.351Z,101411.22
2022-10-26T16:52:01.831Z,101411.62
2022-10-26T16:57:07.352Z,101421.09
2022-10-26T17:02:15.799Z,101434.33
2022-10-26T17:07:21.209Z,101430.03
2022-10-26T17:17:32.818Z,101445.72
2022-10-26T17:22:38.280Z,101447.36
2022-10-26T17:27:46.506Z,101448.06
2022-10-26T17:32:52.446Z,101443.25
2022-10-26T17:37:58.188Z,101440.27
2022-10-26T17:43:03.727Z,101454.11
2022-10-26T17:48:09.331Z,101444.33
2022-10-26T17:53:14.887Z,101454.13
2022-10-26T17:58:21.156Z,101459.02
2022-10-26T18:03:26.608Z,101465.19
2022-10-26T18:08:33.632Z,101481.62
2022-10-26T18:13:39.169Z,101476.42
2022-10-26T18:18:52.495Z,101479.30
2022-10-26T18:23:58.026Z,101479.56
2022-10-26T18:29:04.665Z,101476.05
2022-10-26T18:34:11.927Z,101476.30
2022-10-26T18:39:17.333Z,101489.28
2022-10-26T18:44:22.955Z,101479.77
2022-10-26T18:49:29.211Z,101494.09
2022-10-26T18:54:34.752Z,101497.56
2022-10-26T18:59:40.387Z,101494.87
2022-10-26T19:04:45.870Z,101493.34
2022-10-26T19:09:51.399Z,101494.87
2022-10-26T19:14:56.805Z,101512.38
2022-10-26T19:20:02.269Z,101481.47
2022-10-26T19:25:09.021Z,101495.91
2022-10-26T19:30:16.000Z,101509.72
2022-10-26T19:35:21.614Z,101522.59
2022-10-26T19:40:26.991Z,101522.77
2022-10-26T19:45:32.710Z,101531.73
2022-10-26T19:50:38.232Z,101535.45
2022-10-26T19:55:47.388Z,101542.74
2022-10-26T20:06:05.968Z,101548.91
2022-10-26T20:11:15.545Z,101555.45
2022-10-26T20:16:20.070Z,101545.83
2022-10-26T20:21:25.552Z,101544.87
2022-10-26T20:26:31.084Z,101546.09
2022-10-26T20:31:36.455Z,101554.32
2022-10-26T20:36:41.919Z,101560.09
2022-10-26T20:41:49.296Z,101558.75
2022-10-26T20:46:55.387Z,101558.36
2022-10-26T20:52:20.255Z,101553.55
2022-10-26T20:57:14.073Z,101564.91
2022-10-26T21:02:21.234Z,101575.44
2022-10-26T21:07:26.796Z,101575.91
2022-10-26T21:12:32.364Z,101574.03
2022-10-26T21:17:37.868Z,101568.43
2022-10-26T21:22:43.311Z,101576.97
2022-10-26T21:27:49.211Z,101576.86
2022-10-26T21:38:00.790Z,101568.38
2022-10-26T21:43:06.353Z,101563.88
2022-10-26T21:48:11.815Z,101561.50
2022-10-26T21:53:17.666Z,101573.25
2022-10-26T21:58:23.131Z,101578.15
2022-10-26T22:03:28.648Z,101584.64
2022-10-26T22:08:35.200Z,101594.42
2022-10-26T22:13:40.888Z,101590.89
2022-10-26T22:18:47.412Z,101592.40
2022-10-26T22:23:53.137Z,101600.77
2022-10-26T22:28:58.865Z,101600.60
2022-10-26T22:34:07.909Z,101603.81
2022-10-26T22:39:14.001Z,101608.50
2022-10-26T22:44:19.562Z,101604.80
2022-10-26T22:49:25.174Z,101605.55
2022-10-26T22:54:30.646Z,101622.46
2022-10-26T22:59:36.176Z,101620.96
2022-10-26T23:04:41.751Z,101631.34
2022-10-26T23:09:47.247Z,101630.95
2022-10-26T23:14:52.801Z,101643.66
2022-10-26T23:19:58.277Z,101648.88
2022-10-26T23:25:03.833Z,101638.41
2022-10-26T23:30:10.539Z,101643.23
2022-10-26T23:35:16.066Z,101636.75
2022-10-26T23:40:21.718Z,101631.66
2022-10-26T23:45:27.294Z,101627.77
2022-10-26T23:50:32.821Z,101635.23
2022-10-26T23:55:38.644Z,101637.03
